Dobrodošli na spletni strani vremenske postaje Senovo. Vse informacije so informativnega značaja, saj vremenska postaja ni del državne mreže meteoroloških postaj. AKTUALNIH OBVESTIL NI.


Posebna pozornost v zvezi z vremenskimi dogajanji ni potrebna.    Posebna pozornost v zvezi z vremenskimi dogajanji ni potrebna.

Pogled proti Armezu več informacij Pogled proti Armezu


Lisca več informacij Lisca


Radar strel več informacij blitzortung!


Radar padavin več informacij rain snow radar


Obiščite še:

Template documentation
and downloads

And another site



Weather Underground, zgodovina - Tekstovno

Dnevni povzetek za Januar 31, 2018 Enote:  Angleško    Metrično   Obe
« Predhodni Dan
Naslednji Dan »
Dnevni Tedenski Mesečni Letni Po meri
  Višja: Nižja: Povprečje:
Temperatura: TemperatureC °F -2.1 °F 3.5 °F
Točka rosišča: DewpointC °F -3.5 °F 1.2 °F
Vlažnost: Humidity % 69 % 86 %
Hitrost vetra: WindSpeedKMH mph 0.0 mph 2.1 mph
Sunki vetra: WindSpeedGustKMH mph - -
Veter:- - SW
Zračni tlak: PressurehPa in 1011.1 in -
Padavine: 0.0 in    
Historical Graphs
 
 
Tabelarni podarki za Januar 31, 2018
Čas Temperatura Točka rosišča Zračni tlak Veter Hitrost vetra Sunki vetra Vlažnost Intenziteta padavin (urna)
TemperatureC °F DewpointC °F PressurehPa in Calm     Humidity % HourlyPrecipMM in
00:03 -0.5 °F -2.4 °F 1026.0 in Calm     87 % 0.0 in
00:08 -0.5 °F -2.4 °F 1026.0 in Calm     87 % 0.0 in
00:13 -0.6 °F -2.5 °F 1024.9 in Calm     87 % 0.0 in
00:18 -0.6 °F -2.5 °F 1024.9 in Calm     87 % 0.0 in
00:23 -0.7 °F -2.6 °F 1024.9 in Calm     87 % 0.0 in
00:28 -0.7 °F -2.6 °F 1024.9 in Calm     87 % 0.0 in
00:33 -0.8 °F -2.7 °F 1024.9 in Calm     87 % 0.0 in
00:38 -0.8 °F -2.7 °F 1024.9 in Calm     87 % 0.0 in
00:43 -0.9 °F -2.8 °F 1024.9 in Calm     87 % 0.0 in
00:48 -1.0 °F -2.7 °F 1024.9 in Calm     88 % 0.0 in
00:53 -1.0 °F -2.7 °F 1024.9 in Calm     88 % 0.0 in
00:58 -1.0 °F -2.7 °F 1023.9 in Calm     88 % 0.0 in
01:03 -1.0 °F -2.7 °F 1023.9 in Calm     88 % 0.0 in
01:09 -1.1 °F -2.8 °F 1023.9 in Calm     88 % 0.0 in
01:14 -1.1 °F -2.8 °F 1023.9 in Calm     88 % 0.0 in
01:19 -1.1 °F -2.8 °F 1023.9 in Calm     88 % 0.0 in
01:24 -1.0 °F -2.7 °F 1023.9 in Calm     88 % 0.0 in
01:29 -1.1 °F -2.8 °F 1023.9 in Calm     88 % 0.0 in
01:34 -1.2 °F -2.9 °F 1023.9 in Calm     88 % 0.0 in
01:39 -1.2 °F -2.9 °F 1023.9 in Calm     88 % 0.0 in
01:44 -1.3 °F -3.1 °F 1023.9 in Calm     88 % 0.0 in
01:49 -1.3 °F -3.1 °F 1023.9 in Calm     88 % 0.0 in
01:54 -1.4 °F -3.1 °F 1023.9 in Calm     88 % 0.0 in
01:59 -1.4 °F -3.1 °F 1023.9 in Calm     88 % 0.0 in
02:04 -1.4 °F -3.0 °F 1023.9 in Calm     89 % 0.0 in
02:09 -1.4 °F -3.0 °F 1023.9 in Calm     89 % 0.0 in
02:14 -1.4 °F -3.0 °F 1023.9 in Calm     89 % 0.0 in
02:19 -1.5 °F -3.1 °F 1023.9 in Calm     89 % 0.0 in
02:24 -1.4 °F -3.0 °F 1023.9 in Calm     89 % 0.0 in
02:29 -1.5 °F -3.1 °F 1023.9 in Calm     89 % 0.0 in
02:34 -1.5 °F -3.1 °F 1023.9 in Calm     89 % 0.0 in
02:39 -1.6 °F -3.2 °F 1023.9 in Calm     89 % 0.0 in
02:44 -1.6 °F -3.2 °F 1022.9 in Calm     89 % 0.0 in
02:49 -1.6 °F -3.2 °F 1022.9 in Calm     89 % 0.0 in
02:54 -1.7 °F -3.3 °F 1022.9 in Calm     89 % 0.0 in
02:59 -1.7 °F -3.3 °F 1022.9 in Calm     89 % 0.0 in
03:04 -1.8 °F -3.4 °F 1022.9 in Calm     89 % 0.0 in
03:09 -1.8 °F -3.4 °F 1022.9 in Calm     89 % 0.0 in
03:14 -1.8 °F -3.4 °F 1021.9 in Calm     89 % 0.0 in
03:19 -1.8 °F -3.4 °F 1021.9 in Calm     89 % 0.0 in
03:24 -1.8 °F -3.4 °F 1021.9 in Calm     89 % 0.0 in
03:29 -1.8 °F -3.4 °F 1021.9 in Calm     89 % 0.0 in
03:34 -1.8 °F -3.4 °F 1021.9 in Calm     89 % 0.0 in
03:39 -1.9 °F -3.4 °F 1021.9 in Calm     89 % 0.0 in
03:44 -1.9 °F -3.4 °F 1022.9 in Calm     89 % 0.0 in
03:49 -1.9 °F -3.4 °F 1022.9 in Calm     89 % 0.0 in
03:54 -1.8 °F -3.2 °F 1022.9 in Calm     90 % 0.0 in
03:59 -1.8 °F -3.2 °F 1022.9 in Calm     90 % 0.0 in
04:04 -1.8 °F -3.2 °F 1022.9 in Calm     90 % 0.0 in
04:09 -1.9 °F -3.3 °F 1022.9 in Calm     90 % 0.0 in
04:14 -1.8 °F -3.2 °F 1022.9 in Calm     90 % 0.0 in
04:19 -1.8 °F -3.2 °F 1022.9 in Calm     90 % 0.0 in
04:24 -1.8 °F -3.2 °F 1022.9 in Calm     90 % 0.0 in
04:29 -1.9 °F -3.3 °F 1021.9 in Calm     90 % 0.0 in
04:34 -1.9 °F -3.3 °F 1021.9 in Calm     90 % 0.0 in
04:39 -1.9 °F -3.3 °F 1021.9 in Calm     90 % 0.0 in
04:44 -1.9 °F -3.3 °F 1022.9 in Calm     90 % 0.0 in
04:49 -1.9 °F -3.3 °F 1022.9 in Calm     90 % 0.0 in
04:54 -2.0 °F -3.4 °F 1022.9 in Calm     90 % 0.0 in
04:59 -2.0 °F -3.4 °F 1022.9 in Calm     90 % 0.0 in
05:04 -2.1 °F -3.5 °F 1022.9 in Calm     90 % 0.0 in
05:09 -2.0 °F -3.3 °F 1022.9 in Calm     91 % 0.0 in
05:14 -2.0 °F -3.3 °F 1021.9 in Calm     91 % 0.0 in
05:19 -2.0 °F -3.3 °F 1021.9 in Calm     91 % 0.0 in
05:24 -1.9 °F -3.3 °F 1021.9 in Calm     90 % 0.0 in
05:29 -1.8 °F -3.2 °F 1021.9 in Calm     90 % 0.0 in
05:34 -1.7 °F -3.0 °F 1021.9 in Calm     91 % 0.0 in
05:39 -1.5 °F -2.8 °F 1021.9 in Calm     91 % 0.0 in
05:44 -1.4 °F -2.7 °F 1020.9 in Calm     91 % 0.0 in
05:49 -1.4 °F -2.7 °F 1020.9 in Calm     91 % 0.0 in
05:54 -1.3 °F -2.6 °F 1020.9 in Calm     91 % 0.0 in
05:59 -1.2 °F -2.5 °F 1020.9 in Calm     91 % 0.0 in
06:04 -1.1 °F -2.2 °F 1020.9 in Calm     92 % 0.0 in
06:09 -1.0 °F -2.1 °F 1020.9 in Calm     92 % 0.0 in
06:14 -0.9 °F -2.2 °F 1020.9 in Calm     91 % 0.0 in
06:19 -0.9 °F -2.1 °F 1020.9 in Calm     92 % 0.0 in
06:24 -0.7 °F -1.8 °F 1020.9 in Calm     92 % 0.0 in
06:29 -0.6 °F -1.7 °F 1020.9 in Calm     92 % 0.0 in
06:34 -0.5 °F -1.7 °F 1020.9 in SW 0.2 mph 3.2 mph 92 % 0.0 in
06:39 -0.4 °F -1.6 °F 1020.9 in SW 0.2 mph 3.2 mph 92 % 0.0 in
06:44 -0.4 °F -1.6 °F 1020.9 in Calm     92 % 0.0 in
06:49 -0.3 °F -1.4 °F 1020.9 in Calm     92 % 0.0 in
06:54 -0.2 °F -1.3 °F 1020.9 in Calm     92 % 0.0 in
06:59 -0.2 °F -1.2 °F 1020.9 in Calm     93 % 0.0 in
07:04 -0.1 °F -1.1 °F 1020.9 in Calm     93 % 0.0 in
07:09 0.0 °F -1.0 °F 1020.9 in Calm     93 % 0.0 in
07:14 0.0 °F -1.0 °F 1020.9 in Calm     93 % 0.0 in
07:19 0.1 °F -0.9 °F 1020.9 in Calm     93 % 0.0 in
07:24 0.1 °F -0.9 °F 1020.9 in Calm     93 % 0.0 in
07:29 0.1 °F -0.9 °F 1020.9 in Calm     93 % 0.0 in
07:34 0.2 °F -0.8 °F 1020.9 in Calm     93 % 0.0 in
07:39 0.3 °F -0.7 °F 1020.9 in Calm     93 % 0.0 in
07:44 0.3 °F -0.7 °F 1020.9 in Calm     93 % 0.0 in
07:49 0.3 °F -0.7 °F 1020.9 in Calm     93 % 0.0 in
07:54 0.4 °F -0.4 °F 1020.9 in Calm     94 % 0.0 in
07:59 0.4 °F -0.4 °F 1021.9 in Calm     94 % 0.0 in
08:04 0.5 °F -0.3 °F 1021.9 in Calm     94 % 0.0 in
08:09 0.5 °F -0.3 °F 1021.9 in Calm     94 % 0.0 in
08:14 0.6 °F -0.3 °F 1020.9 in Calm     94 % 0.0 in
08:19 0.6 °F -0.3 °F 1020.9 in Calm     94 % 0.0 in
08:24 0.7 °F -0.2 °F 1020.9 in Calm     94 % 0.0 in
08:29 0.7 °F -0.2 °F 1020.9 in Calm     94 % 0.0 in
08:34 0.8 °F -0.1 °F 1020.9 in Calm     94 % 0.0 in
08:39 0.9 °F 0.1 °F 1020.9 in Calm     94 % 0.0 in
08:44 0.9 °F 0.1 °F 1020.9 in Calm     94 % 0.0 in
08:49 1.0 °F 0.2 °F 1020.9 in Calm     94 % 0.0 in
08:54 1.0 °F 0.2 °F 1020.9 in Calm     94 % 0.0 in
08:59 1.1 °F 0.2 °F 1020.9 in Calm     94 % 0.0 in
09:04 1.1 °F 0.2 °F 1020.9 in Calm   1.4 mph 94 % 0.0 in
09:09 1.2 °F 0.3 °F 1020.9 in Calm   1.4 mph 94 % 0.0 in
09:14 1.3 °F 0.4 °F 1020.9 in Calm     94 % 0.0 in
09:19 1.3 °F 0.4 °F 1020.9 in Calm     94 % 0.0 in
09:24 1.5 °F 0.8 °F 1020.9 in Calm     95 % 0.0 in
09:29 1.5 °F 0.8 °F 1020.9 in Calm     95 % 0.0 in
09:34 1.6 °F 0.9 °F 1020.9 in Calm     95 % 0.0 in
09:39 1.7 °F 1.0 °F 1020.9 in Calm     95 % 0.0 in
09:44 1.8 °F 1.1 °F 1019.9 in Calm     95 % 0.0 in
09:49 1.9 °F 1.2 °F 1019.9 in Calm     95 % 0.0 in
09:54 2.0 °F 1.3 °F 1019.9 in Calm     95 % 0.0 in
09:59 2.1 °F 1.4 °F 1020.9 in Calm     95 % 0.0 in
10:04 2.1 °F 1.4 °F 1020.9 in Calm     95 % 0.0 in
10:09 2.2 °F 1.5 °F 1020.9 in Calm     95 % 0.0 in
10:14 2.3 °F 1.6 °F 1019.9 in Calm     95 % 0.0 in
10:19 2.4 °F 1.7 °F 1019.9 in Calm     95 % 0.0 in
10:24 2.4 °F 1.7 °F 1019.9 in Calm     95 % 0.0 in
10:29 2.5 °F 1.8 °F 1020.9 in Calm     95 % 0.0 in
10:34 2.7 °F 2.0 °F 1020.9 in Calm     95 % 0.0 in
10:39 2.8 °F 2.1 °F 1020.9 in Calm     95 % 0.0 in
10:44 2.9 °F 2.2 °F 1020.9 in Calm     95 % 0.0 in
10:49 3.1 °F 2.4 °F 1020.9 in Calm     95 % 0.0 in
10:54 3.3 °F 2.6 °F 1020.9 in Calm     95 % 0.0 in
10:59 3.4 °F 2.7 °F 1020.9 in Calm     95 % 0.0 in
11:04 3.5 °F 2.8 °F 1020.9 in Calm     95 % 0.0 in
11:09 3.7 °F 3.1 °F 1020.9 in Calm     96 % 0.0 in
11:14 3.8 °F 3.2 °F 1020.9 in Calm     96 % 0.0 in
11:19 3.9 °F 3.3 °F 1020.9 in SE 0.3 mph 4.0 mph 96 % 0.0 in
11:24 4.0 °F 3.3 °F 1020.9 in SE 0.8 mph 4.0 mph 95 % 0.0 in
11:29 4.1 °F 3.4 °F 1020.9 in SE 0.3 mph 2.6 mph 95 % 0.0 in
11:34 4.2 °F 3.4 °F 1020.9 in Calm     95 % 0.0 in
11:39 4.3 °F 3.7 °F 1020.9 in Calm     96 % 0.0 in
11:44 4.4 °F 3.8 °F 1019.9 in Calm     96 % 0.0 in
11:49 4.5 °F 3.9 °F 1019.9 in Calm     96 % 0.0 in
11:54 4.6 °F 4.0 °F 1019.9 in Calm     96 % 0.0 in
11:59 4.7 °F 4.1 °F 1019.9 in Calm     96 % 0.0 in
12:04 4.9 °F 4.3 °F 1019.9 in Calm     96 % 0.0 in
12:09 5.0 °F 4.3 °F 1019.9 in Calm     95 % 0.0 in
12:14 5.1 °F 4.4 °F 1018.8 in Calm     95 % 0.0 in
12:19 5.3 °F 4.6 °F 1018.8 in Calm     95 % 0.0 in
12:24 5.4 °F 4.7 °F 1018.8 in Calm     95 % 0.0 in
12:29 5.6 °F 4.9 °F 1018.8 in Calm     95 % 0.0 in
12:34 5.8 °F 5.2 °F 1018.8 in Calm     96 % 0.0 in
12:39 6.0 °F 5.3 °F 1018.8 in ESE 0.3 mph 4.0 mph 95 % 0.0 in
12:44 6.2 °F 5.4 °F 1018.8 in ESE 1.1 mph 4.0 mph 95 % 0.0 in
12:49 6.4 °F 5.7 °F 1018.8 in ESE 1.0 mph 3.2 mph 95 % 0.0 in
12:54 6.5 °F 5.8 °F 1018.8 in SSE 1.6 mph 6.9 mph 95 % 0.0 in
12:59 6.7 °F 5.9 °F 1018.8 in SSE 2.7 mph 6.9 mph 95 % 0.0 in
13:04 6.8 °F 6.1 °F 1018.8 in SSE 3.7 mph 6.9 mph 95 % 0.0 in
13:09 6.9 °F 6.2 °F 1018.8 in SSE 4.8 mph 6.9 mph 95 % 0.0 in
13:14 7.0 °F 6.3 °F 1018.2 in SSE 4.3 mph 6.1 mph 95 % 0.0 in
13:19 7.1 °F 6.3 °F 1018.2 in SSE 4.2 mph 6.1 mph 95 % 0.0 in
13:24 7.2 °F 6.4 °F 1018.2 in SSE 4.0 mph 5.5 mph 95 % 0.0 in
13:29 7.3 °F 6.6 °F 1018.2 in SSE 3.5 mph 5.5 mph 95 % 0.0 in
13:34 7.4 °F 6.7 °F 1018.2 in SSE 3.9 mph 6.4 mph 95 % 0.0 in
13:39 7.5 °F 6.8 °F 1018.2 in SSE 4.7 mph 7.2 mph 95 % 0.0 in
13:44 7.5 °F 6.6 °F 1016.8 in SSE 4.8 mph 7.2 mph 94 % 0.0 in
13:49 7.6 °F 6.7 °F 1016.8 in SE 5.0 mph 8.7 mph 94 % 0.0 in
13:54 7.7 °F 6.8 °F 1016.8 in SE 5.3 mph 8.7 mph 94 % 0.0 in
13:59 7.7 °F 6.8 °F 1016.1 in SE 5.0 mph 7.9 mph 94 % 0.0 in
14:04 7.8 °F 6.9 °F 1016.1 in SSE 3.7 mph 6.9 mph 94 % 0.0 in
14:09 7.9 °F 7.0 °F 1016.1 in South 3.2 mph 10.1 mph 94 % 0.0 in
14:14 8.0 °F 6.9 °F 1018.2 in SSW 4.0 mph 10.1 mph 93 % 0.0 in
14:19 8.1 °F 7.1 °F 1018.2 in SSW 4.5 mph 8.7 mph 93 % 0.0 in
14:24 8.2 °F 7.1 °F 1018.2 in SW 5.0 mph 8.7 mph 93 % 0.0 in
14:29 8.2 °F 7.0 °F 1018.2 in SW 4.8 mph 8.7 mph 92 % 0.0 in
14:34 8.3 °F 6.9 °F 1018.2 in WSW 4.0 mph 8.7 mph 91 % 0.0 in
14:39 8.3 °F 6.9 °F 1018.2 in West 5.1 mph 9.0 mph 91 % 0.0 in
14:44 8.4 °F 6.8 °F 1016.8 in West 5.8 mph 9.3 mph 90 % 0.0 in
14:49 8.4 °F 6.7 °F 1016.8 in WSW 7.6 mph 16.3 mph 89 % 0.0 in
14:54 8.4 °F 6.5 °F 1016.8 in WSW 9.5 mph 17.7 mph 88 % 0.0 in
14:59 8.5 °F 6.3 °F 1016.8 in West 6.6 mph 17.7 mph 86 % 0.0 in
15:04 8.5 °F 6.1 °F 1016.8 in WNW 5.0 mph 16.3 mph 85 % 0.0 in
15:09 8.5 °F 5.9 °F 1016.8 in WSW 6.3 mph 16.3 mph 84 % 0.0 in
15:14 8.5 °F 5.6 °F 1016.1 in WSW 7.2 mph 15.4 mph 82 % 0.0 in
15:19 8.5 °F 5.4 °F 1016.1 in WSW 8.0 mph 20.6 mph 81 % 0.0 in
15:24 8.5 °F 5.2 °F 1016.1 in WSW 8.2 mph 20.6 mph 80 % 0.0 in
15:29 8.5 °F 5.1 °F 1016.1 in WSW 7.2 mph 13.7 mph 79 % 0.0 in
15:34 8.5 °F 4.7 °F 1016.1 in West 7.7 mph 14.0 mph 77 % 0.0 in
15:39 8.5 °F 4.5 °F 1016.1 in WSW 8.0 mph 14.0 mph 76 % 0.0 in
15:44 8.5 °F 4.3 °F 1016.1 in WSW 6.6 mph 15.4 mph 75 % 0.0 in
15:49 8.5 °F 4.3 °F 1016.1 in West 6.6 mph 17.7 mph 75 % 0.0 in
15:54 8.4 °F 4.1 °F 1016.1 in WSW 6.0 mph 17.7 mph 74 % 0.0 in
15:59 8.4 °F 3.8 °F 1016.1 in West 5.5 mph 17.2 mph 73 % 0.0 in
16:04 8.4 °F 3.8 °F 1016.1 in West 7.1 mph 17.2 mph 73 % 0.0 in
16:09 8.3 °F 3.6 °F 1016.1 in West 6.6 mph 13.0 mph 72 % 0.0 in
16:14 8.3 °F 3.6 °F 1015.1 in West 6.8 mph 11.9 mph 72 % 0.0 in
16:19 8.3 °F 3.3 °F 1015.1 in West 7.6 mph 14.0 mph 71 % 0.0 in
16:24 8.3 °F 3.3 °F 1015.1 in WNW 6.4 mph 14.0 mph 71 % 0.0 in
16:29 8.2 °F 3.3 °F 1015.1 in West 6.4 mph 12.6 mph 71 % 0.0 in
16:34 8.2 °F 3.1 °F 1015.1 in West 6.4 mph 14.8 mph 70 % 0.0 in
16:39 8.2 °F 3.1 °F 1015.1 in West 6.0 mph 14.8 mph 70 % 0.0 in
16:44 8.2 °F 3.1 °F 1015.1 in West 5.8 mph 14.0 mph 70 % 0.0 in
16:49 8.2 °F 3.1 °F 1015.1 in West 5.1 mph 11.6 mph 70 % 0.0 in
16:54 8.1 °F 2.9 °F 1015.1 in WSW 6.0 mph 11.6 mph 70 % 0.0 in
16:59 8.0 °F 2.7 °F 1015.1 in WSW 5.3 mph 10.8 mph 69 % 0.0 in
17:04 8.0 °F 2.7 °F 1015.1 in WSW 3.7 mph 6.9 mph 69 % 0.0 in
17:09 7.9 °F 2.8 °F 1015.1 in SSW 2.7 mph 6.9 mph 70 % 0.0 in
17:14 7.9 °F 2.8 °F 1015.1 in SW 3.4 mph 10.1 mph 70 % 0.0 in
17:19 7.8 °F 2.7 °F 1015.1 in SW 4.8 mph 10.1 mph 70 % 0.0 in
17:24 7.7 °F 2.6 °F 1015.1 in SW 4.8 mph 9.0 mph 70 % 0.0 in
17:29 7.6 °F 2.5 °F 1015.1 in WSW 4.5 mph 9.0 mph 70 % 0.0 in
17:34 7.5 °F 2.4 °F 1015.1 in WSW 4.0 mph 9.0 mph 70 % 0.0 in
17:39 7.4 °F 2.3 °F 1015.1 in WSW 3.7 mph 6.9 mph 70 % 0.0 in
17:44 7.2 °F 2.1 °F 1016.1 in WSW 3.4 mph 7.9 mph 70 % 0.0 in
17:49 7.0 °F 1.9 °F 1016.1 in SW 3.9 mph 7.9 mph 70 % 0.0 in
17:54 6.8 °F 1.7 °F 1016.1 in SW 3.4 mph 6.9 mph 70 % 0.0 in
17:59 6.7 °F 1.6 °F 1015.1 in SW 2.3 mph 4.7 mph 70 % 0.0 in
18:01 6.7 °F 1.6 °F 1015.1 in WSW 1.6 mph 4.7 mph 70 % 0.0 in
18:06 6.5 °F 1.6 °F 1015.1 in SW 2.3 mph 9.0 mph 71 % 0.0 in
18:11 6.5 °F 1.6 °F 1015.1 in SW 4.3 mph 9.0 mph 71 % 0.0 in
18:16 6.5 °F 1.6 °F 1015.1 in SW 4.5 mph 8.7 mph 71 % 0.0 in
18:21 6.5 °F 1.8 °F 1015.1 in SW 4.0 mph 6.4 mph 72 % 0.0 in
18:26 6.5 °F 1.8 °F 1015.1 in SW 4.7 mph 10.5 mph 72 % 0.0 in
18:31 6.4 °F 1.7 °F 1015.1 in SW 4.7 mph 10.5 mph 72 % 0.0 in
18:36 6.4 °F 1.7 °F 1015.1 in SSW 4.5 mph 6.9 mph 72 % 0.0 in
18:41 6.3 °F 1.8 °F 1014.1 in SSW 5.0 mph 9.7 mph 73 % 0.0 in
18:46 6.4 °F 1.9 °F 1014.1 in SW 5.0 mph 9.7 mph 73 % 0.0 in
18:51 6.4 °F 1.9 °F 1014.1 in SSW 5.5 mph 10.1 mph 73 % 0.0 in
18:56 6.4 °F 2.1 °F 1014.1 in SSW 5.3 mph 10.1 mph 74 % 0.0 in
19:01 6.5 °F 2.2 °F 1014.1 in SW 4.8 mph 8.7 mph 74 % 0.0 in
19:06 6.4 °F 2.1 °F 1014.1 in SSW 4.2 mph 6.9 mph 74 % 0.0 in
19:11 6.4 °F 2.1 °F 1014.1 in SW 2.9 mph 6.4 mph 74 % 0.0 in
19:16 6.4 °F 2.1 °F 1014.1 in WSW 2.1 mph 5.8 mph 74 % 0.0 in
19:21 6.4 °F 2.3 °F 1014.1 in SW 3.4 mph 8.7 mph 75 % 0.0 in
19:26 6.4 °F 2.3 °F 1014.1 in SW 4.7 mph 8.7 mph 75 % 0.0 in
19:31 6.4 °F 2.3 °F 1014.1 in SW 2.7 mph 6.4 mph 75 % 0.0 in
19:36 6.4 °F 2.3 °F 1014.1 in SW 1.9 mph 6.9 mph 75 % 0.0 in
19:41 6.4 °F 2.3 °F 1013.1 in SW 3.2 mph 7.9 mph 75 % 0.0 in
19:46 6.3 °F 2.2 °F 1013.1 in SW 3.7 mph 9.0 mph 75 % 0.0 in
19:51 6.3 °F 2.4 °F 1013.1 in SW 3.4 mph 9.0 mph 76 % 0.0 in
19:56 6.3 °F 2.4 °F 1013.1 in SW 3.4 mph 5.8 mph 76 % 0.0 in
20:01 6.3 °F 2.4 °F 1013.1 in SW 4.2 mph 7.9 mph 76 % 0.0 in
20:06 6.3 °F 2.4 °F 1013.1 in SW 4.5 mph 7.9 mph 76 % 0.0 in
20:11 6.3 °F 2.4 °F 1013.1 in SW 4.5 mph 8.7 mph 76 % 0.0 in
20:16 6.3 °F 2.4 °F 1013.1 in SSW 5.1 mph 11.1 mph 76 % 0.0 in
20:21 6.4 °F 2.5 °F 1013.1 in SW 5.3 mph 11.1 mph 76 % 0.0 in
20:26 6.4 °F 2.7 °F 1013.1 in SW 5.6 mph 10.1 mph 77 % 0.0 in
20:31 6.4 °F 2.7 °F 1013.1 in SW 5.5 mph 9.3 mph 77 % 0.0 in
20:36 6.4 °F 2.7 °F 1013.1 in SSW 5.1 mph 10.1 mph 77 % 0.0 in
20:41 6.4 °F 2.7 °F 1012.1 in SSW 5.1 mph 10.1 mph 77 % 0.0 in
20:46 6.3 °F 2.6 °F 1012.1 in South 4.3 mph 6.9 mph 77 % 0.0 in
20:51 6.3 °F 2.6 °F 1012.1 in SSW 3.9 mph 6.4 mph 77 % 0.0 in
20:52 6.3 °F 2.6 °F 1012.1 in SSW 3.9 mph 6.4 mph 77 % 0.0 in
20:57 6.3 °F 2.6 °F 1012.1 in SW 3.7 mph 8.7 mph 77 % 0.0 in
21:02 6.3 °F 2.6 °F 1012.1 in SW 4.2 mph 8.7 mph 77 % 0.0 in
21:07 6.4 °F 2.7 °F 1012.1 in SSW 4.2 mph 6.9 mph 77 % 0.0 in
21:12 6.4 °F 2.7 °F 1013.1 in SSW 4.3 mph 8.7 mph 77 % 0.0 in
21:17 6.5 °F 2.9 °F 1013.1 in SSW 4.3 mph 8.7 mph 78 % 0.0 in
21:18 6.5 °F 2.9 °F 1013.1 in SSW 4.3 mph 8.7 mph 78 % 0.0 in
21:23 6.4 °F 2.8 °F 1013.1 in SSW 3.9 mph 6.4 mph 78 % 0.0 in
21:28 6.3 °F 2.7 °F 1013.1 in South 3.5 mph 6.1 mph 78 % 0.0 in
21:33 6.1 °F 2.6 °F 1013.1 in South 3.7 mph 6.9 mph 78 % 0.0 in
21:38 6.1 °F 2.4 °F 1013.1 in SSW 2.4 mph 6.9 mph 77 % 0.0 in
21:43 5.9 °F 2.3 °F 1012.1 in SSE 0.5 mph 3.2 mph 78 % 0.0 in
21:48 5.6 °F 2.1 °F 1012.1 in WSW 1.0 mph 4.0 mph 78 % 0.0 in
21:53 5.4 °F 1.9 °F 1012.1 in SSW 2.4 mph 9.0 mph 78 % 0.0 in
21:58 5.3 °F 1.8 °F 1012.1 in SW 3.1 mph 9.0 mph 78 % 0.0 in
22:03 5.2 °F 1.7 °F 1012.1 in WNW 2.1 mph 9.0 mph 78 % 0.0 in
22:08 5.2 °F 1.7 °F 1012.1 in WNW 2.1 mph 6.9 mph 78 % 0.0 in
22:13 5.4 °F 1.9 °F 1012.1 in West 3.5 mph 7.9 mph 78 % 0.0 in
22:18 5.5 °F 1.9 °F 1012.1 in West 3.7 mph 7.9 mph 78 % 0.0 in
22:23 5.5 °F 1.9 °F 1012.1 in WNW 2.1 mph 6.9 mph 78 % 0.0 in
22:28 5.4 °F 2.1 °F 1012.1 in West 1.9 mph 6.9 mph 79 % 0.0 in
22:33 5.6 °F 2.2 °F 1012.1 in WSW 3.1 mph 10.1 mph 79 % 0.0 in
22:38 5.8 °F 2.4 °F 1012.1 in SW 4.2 mph 10.1 mph 79 % 0.0 in
22:43 5.8 °F 2.6 °F 1011.1 in SW 4.3 mph 9.0 mph 80 % 0.0 in
22:48 5.9 °F 2.7 °F 1011.1 in SW 4.3 mph 7.9 mph 80 % 0.0 in
22:53 6.0 °F 2.8 °F 1011.1 in SW 4.0 mph 7.9 mph 80 % 0.0 in
22:58 6.0 °F 2.8 °F 1011.1 in SSW 2.3 mph 5.5 mph 80 % 0.0 in
23:03 6.1 °F 2.9 °F 1011.1 in ESE 2.3 mph 6.4 mph 80 % 0.0 in
23:08 6.1 °F 3.1 °F 1011.1 in South 4.3 mph 11.6 mph 81 % 0.0 in
23:13 6.3 °F 3.3 °F 1011.1 in SSW 5.1 mph 11.6 mph 81 % 0.0 in
23:18 6.5 °F 3.5 °F 1011.1 in SSW 5.8 mph 10.1 mph 81 % 0.0 in
23:23 6.7 °F 3.7 °F 1011.1 in WSW 6.9 mph 10.1 mph 81 % 0.0 in
23:28 6.7 °F 3.8 °F 1011.1 in SW 6.1 mph 9.7 mph 82 % 0.0 in
23:34 6.7 °F 3.8 °F 1011.1 in SSW 4.8 mph 12.2 mph 82 % 0.0 in
23:39 6.8 °F 3.9 °F 1011.1 in SSW 4.8 mph 12.2 mph 82 % 0.0 in
23:44 6.8 °F 3.9 °F 1011.1 in SW 5.3 mph 14.3 mph 82 % 0.0 in
23:49 6.8 °F 3.9 °F 1011.1 in SW 6.1 mph 14.3 mph 82 % 0.0 in
23:53 6.8 °F 3.9 °F 1011.1 in SW 6.1 mph 10.5 mph 82 % 0.0 in
23:59 6.8 °F 3.9 °F 1011.1 in SSW 6.8 mph 13.7 mph 82 % 0.0 in
Vremenska postaja Senovo
Podatki zbrani iz Weather Underground - 3 mb

Script developed by  Jim McMurry - jmcmurry@mwt.net Adapted for the template by  Wim van der Kuil - Leuven-Template.eu

Vremenski podatki so objavljeni na:

European Weather Network

WeatherCloud

Weather Underground

AWEKAS

HAMweather, WeatherForYou, PWS Weather

MapView

Geostik

Slovenia weather network

Oprema, ki se uporablja:

Vremenski program
Cumulus

Vremenski server
Asus

Cumulus

Asus